Time,TemperatureF,DewpointF,PressureIn,WindDirection,WindDirectionDegrees,WindSpeedMPH,WindSpeedGustMPH,Humidity,HourlyPrecipIn,Conditions,Clouds,dailyrainin,SoftwareType,DateUTC
2013-06-20 00:02:00,54.0,52.0,30.14,North,0,0.0,-999.0,93,-99.99,,,-99.99,,2013-06-20 04:02:00,
2013-06-20 00:11:00,54.0,52.0,30.14,North,0,0.0,-999.0,93,-99.99,,,-99.99,,2013-06-20 04:11:00,
2013-06-20 00:22:00,52.0,50.0,30.15,North,0,0.0,-999.0,93,-99.99,,,-99.99,,2013-06-20 04:22:00,
2013-06-20 00:33:00,52.0,50.0,30.15,North,0,0.0,-999.0,93,-99.99,,,-99.99,,2013-06-20 04:33:00,
2013-06-20 00:43:00,54.0,52.0,30.15,East,80,5.0,-999.0,93,-99.99,,,-99.99,,2013-06-20 04:43:00,
2013-06-20 00:53:00,54.0,50.0,30.15,East,90,6.0,-999.0,87,-99.99,,,-99.99,,2013-06-20 04:53:00,
2013-06-20 01:01:00,55.0,52.0,30.15,East,100,6.0,-999.0,87,-99.99,,,-99.99,,2013-06-20 05:01:00,
2013-06-20 01:11:00,57.0,52.0,30.15,East,100,5.0,-999.0,82,-99.99,,,-99.99,,2013-06-20 05:11:00,
2013-06-20 01:21:00,57.0,50.0,30.15,ESE,110,6.0,-999.0,76,-99.99,,,-99.99,,2013-06-20 05:21:00,
2013-06-20 01:33:00,57.0,48.0,30.15,ESE,110,6.0,-999.0,71,-99.99,,,-99.99,,2013-06-20 05:33:00,
2013-06-20 01:43:00,57.0,48.0,30.15,ESE,110,5.0,-999.0,71,-99.99,,,-99.99,,2013-06-20 05:43:00,
2013-06-20 01:52:00,57.0,48.0,30.15,ESE,110,6.0,-999.0,71,-99.99,,,-99.99,,2013-06-20 05:52:00,
2013-06-20 02:02:00,57.0,46.0,30.15,ESE,120,5.0,-999.0,67,-99.99,,,-99.99,,2013-06-20 06:02:00,
2013-06-20 02:11:00,57.0,46.0,30.14,ESE,110,3.0,-999.0,67,-99.99,,,-99.99,,2013-06-20 06:11:00,
2013-06-20 02:21:00,57.0,46.0,30.14,SE,130,5.0,-999.0,67,-99.99,,,-99.99,,2013-06-20 06:21:00,
2013-06-20 02:33:00,57.0,46.0,30.14,SE,130,3.0,-999.0,67,-99.99,,,-99.99,,2013-06-20 06:33:00,
2013-06-20 02:43:00,55.0,46.0,30.14,ESE,110,3.0,-999.0,71,-99.99,,,-99.99,,2013-06-20 06:43:00,
2013-06-20 02:53:00,55.0,46.0,30.14,ESE,110,3.0,-999.0,71,-99.99,,,-99.99,,2013-06-20 06:53:00,
2013-06-20 03:01:00,54.0,46.0,30.14,SE,130,3.0,-999.0,76,-99.99,,,-99.99,,2013-06-20 07:01:00,
2013-06-20 03:12:00,54.0,46.0,30.14,SE,130,3.0,-999.0,76,-99.99,,,-99.99,,2013-06-20 07:12:00,
2013-06-20 03:22:00,55.0,48.0,30.14,SE,140,3.0,-999.0,76,-99.99,,,-99.99,,2013-06-20 07:22:00,
2013-06-20 03:33:00,55.0,48.0,30.14,SE,140,3.0,-999.0,76,-99.99,,,-99.99,,2013-06-20 07:33:00,
2013-06-20 03:43:00,55.0,48.0,30.14,SE,140,3.0,-999.0,76,-99.99,,,-99.99,,2013-06-20 07:43:00,
2013-06-20 03:52:00,54.0,48.0,30.14,North,0,0.0,-999.0,81,-99.99,,,-99.99,,2013-06-20 07:52:00,
2013-06-20 04:01:00,54.0,46.0,30.14,North,0,0.0,-999.0,76,-99.99,,,-99.99,,2013-06-20 08:01:00,
2013-06-20 04:11:00,52.0,48.0,30.15,North,0,0.0,-999.0,87,-99.99,,,-99.99,,2013-06-20 08:11:00,
2013-06-20 04:22:00,50.0,48.0,30.16,North,0,0.0,-999.0,93,-99.99,,,-99.99,,2013-06-20 08:22:00,
2013-06-20 04:33:00,50.0,48.0,30.16,North,0,0.0,-999.0,93,-99.99,,,-99.99,,2013-06-20 08:33:00,
2013-06-20 04:43:00,50.0,48.0,30.16,North,0,0.0,-999.0,93,-99.99,,,-99.99,,2013-06-20 08:43:00,
2013-06-20 04:52:00,48.0,48.0,30.16,North,0,0.0,-999.0,100,-99.99,,,-99.99,,2013-06-20 08:52:00,
2013-06-20 05:01:00,48.0,48.0,30.16,North,0,0.0,-999.0,100,-99.99,,,-99.99,,2013-06-20 09:01:00,
2013-06-20 05:11:00,50.0,48.0,30.16,North,0,0.0,-999.0,93,-99.99,,,-99.99,,2013-06-20 09:11:00,
2013-06-20 05:21:00,50.0,48.0,30.16,North,0,0.0,-999.0,93,-99.99,,,-99.99,,2013-06-20 09:21:00,
2013-06-20 05:33:00,50.0,48.0,30.16,North,0,0.0,-999.0,93,-99.99,,,-99.99,,2013-06-20 09:33:00,
2013-06-20 05:42:00,48.0,48.0,30.17,North,0,0.0,-999.0,100,-99.99,,,-99.99,,2013-06-20 09:42:00,
2013-06-20 05:52:00,48.0,48.0,30.17,North,0,0.0,-999.0,100,-99.99,,,-99.99,,2013-06-20 09:52:00,
2013-06-20 06:01:00,48.0,46.0,30.17,North,0,0.0,-999.0,93,-99.99,,,-99.99,,2013-06-20 10:01:00,
2013-06-20 06:11:00,48.0,48.0,30.17,North,0,0.0,-999.0,100,-99.99,,,-99.99,,2013-06-20 10:11:00,
2013-06-20 06:22:00,48.0,48.0,30.17,North,0,0.0,-999.0,100,-99.99,,,-99.99,,2013-06-20 10:22:00,
2013-06-20 06:33:00,48.0,48.0,30.17,North,0,0.0,-999.0,100,-99.99,,,-99.99,,2013-06-20 10:33:00,
2013-06-20 06:43:00,48.0,48.0,30.18,North,0,0.0,-999.0,100,-99.99,,,-99.99,,2013-06-20 10:43:00,
2013-06-20 06:53:00,48.0,48.0,30.18,North,0,0.0,-999.0,100,-99.99,,,-99.99,,2013-06-20 10:53:00,
2013-06-20 07:01:00,50.0,48.0,30.18,North,0,0.0,-999.0,93,-99.99,,,-99.99,,2013-06-20 11:01:00,
2013-06-20 07:11:00,50.0,50.0,30.18,North,0,0.0,-999.0,100,-99.99,,,-99.99,,2013-06-20 11:11:00,
2013-06-20 07:22:00,52.0,52.0,30.19,North,0,0.0,-999.0,100,-99.99,,,-99.99,,2013-06-20 11:22:00,
2013-06-20 07:33:00,52.0,52.0,30.19,North,0,0.0,-999.0,100,-99.99,,,-99.99,,2013-06-20 11:33:00,
2013-06-20 07:42:00,54.0,54.0,30.19,North,0,0.0,-999.0,100,-99.99,,,-99.99,,2013-06-20 11:42:00,
2013-06-20 07:52:00,57.0,55.0,30.20,North,0,0.0,-999.0,93,-99.99,,,-99.99,,2013-06-20 11:52:00,
2013-06-20 08:01:00,61.0,55.0,30.20,SSW,200,3.0,-999.0,82,-99.99,,,-99.99,,2013-06-20 12:01:00,
2013-06-20 08:11:00,61.0,55.0,30.20,SSW,210,3.0,-999.0,82,-99.99,,,-99.99,,2013-06-20 12:11:00,
2013-06-20 08:22:00,61.0,55.0,30.20,SSW,200,5.0,-999.0,82,-99.99,,,-99.99,,2013-06-20 12:22:00,
2013-06-20 08:33:00,63.0,55.0,30.20,SSW,200,5.0,-999.0,77,-99.99,,,-99.99,,2013-06-20 12:33:00,
2013-06-20 08:43:00,63.0,55.0,30.20,SSW,200,5.0,-999.0,77,-99.99,,,-99.99,,2013-06-20 12:43:00,
2013-06-20 08:53:00,63.0,55.0,30.20,SSW,200,5.0,-999.0,77,-99.99,,,-99.99,,2013-06-20 12:53:00,
2013-06-20 09:01:00,63.0,55.0,30.20,SSW,200,5.0,-999.0,77,-99.99,,,-99.99,,2013-06-20 13:01:00,
2013-06-20 09:11:00,64.0,54.0,30.20,North,0,0.0,-999.0,67,-99.99,,,-99.99,,2013-06-20 13:11:00,
2013-06-20 09:21:00,64.0,54.0,30.20,SW,230,3.0,-999.0,67,-99.99,,,-99.99,,2013-06-20 13:21:00,
2013-06-20 09:33:00,66.0,55.0,30.20,SW,230,7.0,-999.0,68,-99.99,,,-99.99,,2013-06-20 13:33:00,
2013-06-20 09:42:00,66.0,55.0,30.20,SW,220,5.0,-999.0,68,-99.99,,,-99.99,,2013-06-20 13:42:00,
2013-06-20 09:53:00,66.0,54.0,30.20,WSW,240,6.0,-999.0,63,-99.99,,,-99.99,,2013-06-20 13:53:00,
2013-06-20 10:02:00,66.0,54.0,30.20,SSW,210,6.0,-999.0,63,-99.99,,,-99.99,,2013-06-20 14:02:00,
2013-06-20 10:11:00,68.0,55.0,30.20,WSW,250,3.0,-999.0,64,-99.99,,,-99.99,,2013-06-20 14:11:00,
2013-06-20 10:22:00,68.0,54.0,30.20,SW,230,3.0,-999.0,59,-99.99,,,-99.99,,2013-06-20 14:22:00,
2013-06-20 10:32:00,70.0,55.0,30.19,North,0,0.0,-999.0,60,-99.99,,,-99.99,,2013-06-20 14:32:00,
2013-06-20 10:42:00,70.0,55.0,30.19,SSW,210,5.0,-999.0,60,-99.99,,,-99.99,,2013-06-20 14:42:00,
2013-06-20 10:53:00,70.0,55.0,30.19,North,0,0.0,-999.0,60,-99.99,,,-99.99,,2013-06-20 14:53:00,
2013-06-20 11:01:00,70.0,55.0,30.19,North,0,0.0,-999.0,60,-99.99,,,-99.99,,2013-06-20 15:01:00,
2013-06-20 11:11:00,72.0,55.0,30.20,North,0,0.0,-999.0,56,-99.99,,,-99.99,,2013-06-20 15:11:00,
2013-06-20 11:21:00,73.0,55.0,30.19,North,0,0.0,-999.0,53,-99.99,,,-99.99,,2013-06-20 15:21:00,
2013-06-20 11:33:00,73.0,55.0,30.20,North,0,0.0,-999.0,53,-99.99,,,-99.99,,2013-06-20 15:33:00,
2013-06-20 11:43:00,73.0,55.0,30.20,North,0,0.0,-999.0,53,-99.99,,,-99.99,,2013-06-20 15:43:00,
2013-06-20 11:52:00,73.0,55.0,30.19,North,0,0.0,-999.0,53,-99.99,,,-99.99,,2013-06-20 15:52:00,
2013-06-20 12:01:00,73.0,55.0,30.20,North,0,0.0,-999.0,53,-99.99,,,-99.99,,2013-06-20 16:01:00,
2013-06-20 12:11:00,73.0,54.0,30.20,North,0,0.0,-999.0,49,-99.99,,,-99.99,,2013-06-20 16:11:00,
2013-06-20 12:22:00,75.0,54.0,30.20,South,190,5.0,-999.0,46,-99.99,,,-99.99,,2013-06-20 16:22:00,
2013-06-20 12:32:00,75.0,52.0,30.19,North,0,0.0,-999.0,43,-99.99,,,-99.99,,2013-06-20 16:32:00,
2013-06-20 12:42:00,75.0,52.0,30.20,West,280,3.0,-999.0,43,-99.99,,,-99.99,,2013-06-20 16:42:00,
2013-06-20 12:52:00,75.0,48.0,30.20,SSW,200,3.0,-999.0,38,-99.99,,,-99.99,,2013-06-20 16:52:00,
2013-06-20 13:02:00,75.0,50.0,30.20,SSE,150,5.0,-999.0,41,-99.99,,,-99.99,,2013-06-20 17:02:00,
2013-06-20 13:12:00,77.0,52.0,30.20,SW,220,6.0,-999.0,41,-99.99,,,-99.99,,2013-06-20 17:12:00,
2013-06-20 13:21:00,75.0,50.0,30.20,South,170,7.0,-999.0,41,-99.99,,,-99.99,,2013-06-20 17:21:00,
2013-06-20 13:32:00,77.0,50.0,30.20,WSW,240,3.0,-999.0,38,-99.99,,,-99.99,,2013-06-20 17:32:00,
2013-06-20 13:42:00,79.0,52.0,30.20,North,0,0.0,-999.0,39,-99.99,,,-99.99,,2013-06-20 17:42:00,
2013-06-20 13:52:00,77.0,52.0,30.18,North,0,0.0,-999.0,41,-99.99,,,-99.99,,2013-06-20 17:52:00,
2013-06-20 14:01:00,77.0,50.0,30.18,WNW,290,5.0,-999.0,38,-99.99,,,-99.99,,2013-06-20 18:01:00,
2013-06-20 14:11:00,79.0,52.0,30.18,West,270,7.0,-999.0,39,-99.99,,,-99.99,,2013-06-20 18:11:00,
2013-06-20 14:22:00,79.0,50.0,30.18,NW,310,5.0,-999.0,36,-99.99,,,-99.99,,2013-06-20 18:22:00,
2013-06-20 14:33:00,79.0,50.0,30.17,NW,310,3.0,-999.0,36,-99.99,,,-99.99,,2013-06-20 18:33:00,
2013-06-20 14:42:00,79.0,48.0,30.17,SSE,160,5.0,-999.0,34,-99.99,,,-99.99,,2013-06-20 18:42:00,
2013-06-20 14:53:00,79.0,50.0,30.18,SW,230,5.0,-999.0,36,-99.99,,,-99.99,,2013-06-20 18:53:00,
2013-06-20 15:01:00,79.0,48.0,30.18,North,0,0.0,-999.0,34,-99.99,,,-99.99,,2013-06-20 19:01:00,
2013-06-20 15:11:00,79.0,52.0,30.18,WSW,250,7.0,-999.0,39,-99.99,,,-99.99,,2013-06-20 19:11:00,
2013-06-20 15:22:00,79.0,52.0,30.18,West,270,6.0,-999.0,39,-99.99,,,-99.99,,2013-06-20 19:22:00,
2013-06-20 15:33:00,79.0,50.0,30.18,North,0,0.0,-999.0,36,-99.99,,,-99.99,,2013-06-20 19:33:00,
2013-06-20 15:43:00,79.0,48.0,30.17,North,0,0.0,-999.0,34,-99.99,,,-99.99,,2013-06-20 19:43:00,
2013-06-20 15:52:00,79.0,48.0,30.18,North,0,0.0,-999.0,34,-99.99,,,-99.99,,2013-06-20 19:52:00,
2013-06-20 16:01:00,79.0,48.0,30.17,North,0,0.0,-999.0,34,-99.99,,,-99.99,,2013-06-20 20:01:00,
2013-06-20 16:11:00,81.0,50.0,30.17,South,180,3.0,-999.0,34,-99.99,,,-99.99,,2013-06-20 20:11:00,
2013-06-20 19:33:00,81.0,50.0,30.14,North,0,0.0,-999.0,34,-99.99,,,-99.99,,2013-06-20 23:33:00,
2013-06-20 20:01:00,79.0,52.0,30.14,SSW,200,5.0,-999.0,39,-99.99,,,-99.99,,2013-06-21 00:01:00,
2013-06-20 20:42:00,79.0,48.0,30.14,SSE,160,3.0,-999.0,34,-99.99,,,-99.99,,2013-06-21 00:42:00,